»·PEaware :: N831KA KIFP-KVNY

N831KA :: KIFP-KVNY

FLIGHT INFORMATION

Flight Status: Arrived
Operator: Privately registered:
United States
More flights under this callsign
Pilot: Georg L. (13308)
Aircraft: BEECH AIRCRAFT SUPER KING AIR 350
(B350)
More flights by this aircraft type
Origin: KIFP Laughlin/Bullhead Intl
United States
Destination: KVNY Van Nuys
United States
More flights between these airports :: More routes between these airports
Route: +EED JANNY5
File this flight plan on PilotEdge
Remarks:
Altitude:
(Current/Filed)
20,000ft
Speed:
(Current/Filed)
296kts
Departed: 08-Jul-20 08:09 AM
Arrived: 08-Jul-20 09:07 AM
Distance/Time
Traveled:
202nm/0:57
Distance/Time
To Go:
Arrived

Flight Plot

Page will automatically refresh every two minutes.

Flight plan parsing failed; only flown route is shown


Map Options




Map Legend


Flown Route
Filed Route
Departure Airport
Arrival Airport
Navaid (VOR, NDB)
Fix

Horizontal Profiles

Position Reports

Time Latitude Longitude Heading Altitude Ground
Speed
08-Jul-20 06:52 35.156504 -114.556146 269 706ft 0kts
08-Jul-20 06:53 35.156504 -114.556146 269 706ft 0kts
08-Jul-20 06:54 35.156504 -114.556146 269 706ft 0kts
08-Jul-20 06:55 35.156504 -114.556146 269 706ft 0kts
08-Jul-20 06:56 35.156504 -114.556146 269 706ft 0kts
08-Jul-20 06:57 35.156504 -114.556146 269 706ft 0kts
08-Jul-20 06:58 35.156504 -114.556146 269 706ft 0kts
08-Jul-20 06:59 35.156504 -114.556146 269 706ft 0kts
08-Jul-20 07:00 35.156504 -114.556146 269 706ft 0kts
08-Jul-20 07:02 35.156504 -114.556146 269 706ft 0kts
08-Jul-20 07:03 35.156504 -114.556146 269 706ft 0kts
08-Jul-20 07:04 35.156504 -114.556146 269 706ft 0kts
08-Jul-20 07:05 35.156504 -114.556146 269 706ft 0kts
08-Jul-20 07:06 35.156504 -114.556146 269 706ft 0kts
08-Jul-20 07:07 35.156504 -114.556146 269 706ft 0kts
08-Jul-20 07:08 35.156504 -114.556146 269 706ft 0kts
08-Jul-20 07:09 35.156504 -114.556146 269 706ft 0kts
08-Jul-20 07:10 35.156504 -114.556146 269 706ft 0kts
08-Jul-20 07:11 35.156504 -114.556146 269 706ft 0kts
08-Jul-20 07:12 35.156504 -114.556146 269 706ft 0kts
08-Jul-20 07:13 35.156504 -114.556146 269 706ft 0kts
08-Jul-20 07:14 35.156504 -114.556146 269 706ft 0kts
08-Jul-20 07:15 35.156504 -114.556146 269 706ft 0kts
08-Jul-20 07:15 35.156504 -114.556146 269 706ft 0kts
08-Jul-20 07:17 35.156504 -114.556146 269 706ft 0kts
08-Jul-20 07:18 35.156504 -114.556146 269 706ft 0kts
08-Jul-20 07:19 35.156504 -114.556146 269 706ft 0kts
08-Jul-20 07:20 35.156504 -114.556146 269 706ft 0kts
08-Jul-20 07:20 35.156504 -114.556146 269 706ft 0kts
08-Jul-20 07:22 35.156504 -114.556146 269 706ft 0kts
08-Jul-20 07:22 35.156504 -114.556146 269 706ft 0kts
08-Jul-20 07:23 35.156504 -114.556146 269 706ft 0kts
08-Jul-20 07:24 35.156504 -114.556146 269 706ft 0kts
08-Jul-20 07:25 35.156504 -114.556146 269 706ft 0kts
08-Jul-20 07:27 35.156504 -114.556146 269 706ft 0kts
08-Jul-20 07:27 35.156504 -114.556146 269 706ft 0kts
08-Jul-20 07:28 35.156504 -114.556146 269 706ft 0kts
08-Jul-20 07:29 35.156504 -114.556146 269 706ft 0kts
08-Jul-20 07:30 35.156504 -114.556146 269 706ft 0kts
08-Jul-20 07:31 35.156504 -114.556146 269 706ft 0kts
08-Jul-20 07:32 35.156504 -114.556146 269 706ft 0kts
08-Jul-20 07:33 35.156504 -114.556146 269 706ft 0kts
08-Jul-20 07:34 35.156504 -114.556146 269 706ft 0kts
08-Jul-20 07:35 35.156504 -114.556146 269 706ft 0kts
08-Jul-20 07:36 35.156504 -114.556146 269 706ft 0kts
08-Jul-20 07:37 35.156504 -114.556146 269 706ft 0kts
08-Jul-20 07:38 35.156504 -114.556146 269 706ft 0kts
08-Jul-20 07:39 35.156504 -114.556146 269 706ft 0kts
08-Jul-20 07:40 35.156504 -114.556146 269 706ft 0kts
08-Jul-20 07:41 35.156504 -114.556146 269 706ft 0kts
08-Jul-20 07:42 35.156504 -114.556146 269 706ft 0kts
08-Jul-20 07:43 35.156504 -114.556146 269 706ft 0kts
08-Jul-20 07:44 35.156504 -114.556146 269 706ft 0kts
08-Jul-20 07:45 35.156504 -114.556146 269 706ft 0kts
08-Jul-20 07:46 35.156504 -114.556146 269 706ft 0kts
08-Jul-20 07:47 35.156504 -114.556135 269 706ft 0kts
08-Jul-20 07:48 35.156504 -114.556135 269 706ft 0kts
08-Jul-20 07:49 35.156504 -114.556135 269 706ft 0kts
08-Jul-20 07:50 35.156504 -114.556135 269 706ft 0kts
08-Jul-20 07:51 35.156504 -114.556170 267 706ft 0kts
08-Jul-20 07:52 35.156504 -114.556170 267 706ft 0kts
08-Jul-20 07:53 35.156504 -114.556171 267 706ft 0kts
08-Jul-20 07:54 35.156504 -114.556171 267 706ft 0kts
08-Jul-20 07:55 35.156504 -114.556170 267 706ft 0kts
08-Jul-20 07:56 35.156504 -114.556170 267 706ft 0kts
08-Jul-20 07:57 35.156504 -114.556170 267 706ft 0kts
08-Jul-20 07:58 35.156504 -114.556170 267 706ft 0kts
08-Jul-20 07:59 35.156504 -114.556170 267 706ft 0kts
08-Jul-20 08:00 35.156463 -114.556342 225 706ft 5kts
08-Jul-20 08:01 35.156558 -114.558082 356 706ft 13kts
08-Jul-20 08:02 35.161750 -114.558484 354 706ft 23kts
08-Jul-20 08:03 35.166202 -114.559274 270 706ft 0kts
08-Jul-20 08:04 35.166202 -114.559274 270 706ft 0kts
08-Jul-20 08:05 35.166202 -114.559274 270 706ft 0kts
08-Jul-20 08:06 35.166202 -114.559274 270 706ft 0kts
08-Jul-20 08:07 35.166190 -114.559639 258 706ft 7kts
08-Jul-20 08:08 35.162415 -114.559938 176 706ft 92kts
08-Jul-20 08:09 35.128857 -114.552171 167 3202ft 127kts
08-Jul-20 08:10 35.094310 -114.543927 172 5990ft 130kts
08-Jul-20 08:11 35.057463 -114.535985 173 8482ft 150kts
08-Jul-20 08:12 35.015374 -114.527051 175 10786ft 159kts
08-Jul-20 08:13 34.970141 -114.517477 176 12751ft 178kts
08-Jul-20 08:14 34.916948 -114.506138 175 14280ft 208kts
08-Jul-20 08:15 34.859775 -114.494002 175 15712ft 215kts
08-Jul-20 08:16 34.800050 -114.481338 175 16993ft 222kts
08-Jul-20 08:17 34.765932 -114.520084 275 18014ft 209kts
08-Jul-20 08:18 34.768686 -114.591043 270 19014ft 213kts
08-Jul-20 08:19 34.770312 -114.663815 270 19863ft 217kts
08-Jul-20 08:20 34.772015 -114.742616 270 19881ft 246kts
08-Jul-20 08:21 34.773811 -114.828467 270 19875ft 259kts
08-Jul-20 08:22 34.775608 -114.917293 270 19873ft 265kts
08-Jul-20 08:23 34.777397 -115.007779 270 19872ft 268kts
08-Jul-20 08:24 34.779142 -115.099407 270 19872ft 274kts
08-Jul-20 08:25 34.780848 -115.192713 270 19870ft 277kts
08-Jul-20 08:26 34.782498 -115.286931 270 19870ft 279kts
08-Jul-20 08:27 34.784074 -115.381139 270 19869ft 279kts
08-Jul-20 08:28 34.785581 -115.475603 270 19868ft 279kts
08-Jul-20 08:29 34.787015 -115.570097 270 19868ft 279kts
08-Jul-20 08:30 34.788326 -115.661149 270 19871ft 280kts
08-Jul-20 08:31 34.789563 -115.751197 270 19873ft 281kts
08-Jul-20 08:32 34.790988 -115.846248 270 19872ft 281kts
08-Jul-20 08:33 34.792811 -115.941431 270 19876ft 281kts
08-Jul-20 08:34 34.794563 -116.036224 270 19941ft 279kts
08-Jul-20 08:35 34.796230 -116.130350 270 20000ft 278kts
08-Jul-20 08:36 34.797815 -116.224194 270 20027ft 278kts
08-Jul-20 08:37 34.795517 -116.318465 267 20028ft 278kts
08-Jul-20 08:38 34.792394 -116.412338 267 20029ft 278kts
08-Jul-20 08:39 34.789181 -116.506720 267 20031ft 278kts
08-Jul-20 08:40 34.783286 -116.600226 263 20034ft 278kts
08-Jul-20 08:41 34.775618 -116.679557 263 20048ft 281kts
08-Jul-20 08:42 34.766312 -116.775334 263 20051ft 287kts
08-Jul-20 08:43 34.756792 -116.872179 262 20056ft 289kts
08-Jul-20 08:44 34.746998 -116.969395 262 20051ft 289kts
08-Jul-20 08:45 34.737091 -117.066868 262 20040ft 290kts
08-Jul-20 08:46 34.727120 -117.164201 262 20031ft 290kts
08-Jul-20 08:47 34.717088 -117.261322 262 20033ft 290kts
08-Jul-20 08:48 34.706709 -117.360590 262 19371ft 306kts
08-Jul-20 08:49 34.695778 -117.465193 262 18375ft 315kts
08-Jul-20 08:50 34.684489 -117.571525 262 17338ft 317kts
08-Jul-20 08:51 34.673581 -117.674167 262 16107ft 300kts
08-Jul-20 08:52 34.662952 -117.774181 262 14832ft 296kts
08-Jul-20 08:53 34.652423 -117.872316 262 14045ft 286kts
08-Jul-20 08:54 34.642208 -117.965938 262 13986ft 276kts
08-Jul-20 08:55 34.631654 -118.061238 260 13092ft 290kts
08-Jul-20 08:56 34.610495 -118.158184 254 11490ft 298kts
08-Jul-20 08:57 34.589649 -118.251787 255 9465ft 280kts
08-Jul-20 08:58 34.569830 -118.340361 255 7963ft 259kts
08-Jul-20 08:59 34.551439 -118.422261 255 7981ft 252kts
08-Jul-20 09:00 34.519860 -118.497981 206 7106ft 267kts
08-Jul-20 09:01 34.448407 -118.512762 176 6009ft 265kts
08-Jul-20 09:02 34.377989 -118.506466 175 4892ft 242kts
08-Jul-20 09:03 34.314115 -118.500472 178 3566ft 210kts
08-Jul-20 09:04 34.263686 -118.495320 176 1948ft 155kts
08-Jul-20 09:06 34.226666 -118.491925 175 1032ft 111kts
08-Jul-20 09:07 34.205517 -118.489815 165 807ft 24kts
08-Jul-20 09:08 34.202730 -118.488780 262 807ft 8kts
08-Jul-20 09:09 34.202788 -118.491708 317 807ft 6kts
08-Jul-20 09:10 34.202931 -118.491739 358 807ft 0kts
08-Jul-20 09:11 34.202931 -118.491739 358 807ft 0kts
08-Jul-20 09:12 34.202931 -118.491739 358 807ft 0kts

Navigation Log

Ident Type
Flight plan parsing failed, navigation log unavailable